Time;durP1;ratioP1;P1;durP2;ratioP2;P2;SDS_P1;SDS_P2;PMS_P1;PMS_P2;Temp;Humidity;BMP_temperature;BMP_pressure;BME280_temperature;BME280_humidity;BME280_pressure;Samples;Min_cycle;Max_cycle;Signal;HPM_P1;HPM_P2
2022/07/15 00:00:28;;;;;;;5.88;3.30;;;;;;;19.33;67.94;100035.81;5070635;28;20028;-31
2022/07/15 00:02:53;;;;;;;4.07;3.40;;;;;;;19.47;67.04;100009.78;5087979;28;20505;-31
2022/07/15 00:05:19;;;;;;;6.60;3.30;;;;;;;19.40;68.11;100026.31;5088783;28;20043;-30
2022/07/15 00:07:45;;;;;;;8.93;3.40;;;;;;;19.36;67.07;100013.66;5089204;28;20024;-31
2022/07/15 00:10:18;;;;;;;4.63;3.47;;;;;;;19.75;65.55;100026.44;5089298;28;20425;-29
2022/07/15 00:12:51;;;;;;;6.88;3.30;;;;;;;19.52;66.83;100036.81;5087805;28;20118;-28
2022/07/15 00:15:18;;;;;;;5.50;3.70;;;;;;;19.73;66.88;100031.31;5088540;28;20035;-32
2022/07/15 00:17:44;;;;;;;6.93;3.00;;;;;;;19.03;68.95;100013.25;5073854;28;20035;-28
2022/07/15 00:20:11;;;;;;;5.65;3.67;;;;;;;18.98;69.98;100027.59;5088363;28;20036;-28
2022/07/15 00:22:37;;;;;;;9.40;3.50;;;;;;;19.17;68.12;100033.19;5069991;28;20031;-32
2022/07/15 00:25:03;;;;;;;8.10;3.50;;;;;;;19.34;68.00;100030.13;5069365;28;20266;-31
2022/07/15 00:27:29;;;;;;;5.93;3.28;;;;;;;19.56;67.17;100029.75;5082753;28;20035;-30
2022/07/15 00:29:54;;;;;;;6.32;3.60;;;;;;;19.60;66.66;100011.88;5073861;28;20032;-28
2022/07/15 00:32:20;;;;;;;4.10;3.08;;;;;;;19.20;68.20;100010.19;5088096;28;20077;-29
2022/07/15 00:34:45;;;;;;;5.95;3.40;;;;;;;18.78;70.11;100023.03;5053763;28;20039;-29
2022/07/15 00:37:11;;;;;;;5.22;3.28;;;;;;;18.74;70.01;99988.75;5088648;28;20035;-32
2022/07/15 00:39:36;;;;;;;5.93;3.30;;;;;;;19.08;69.28;100029.44;5074666;28;20499;-31
2022/07/15 00:42:03;;;;;;;6.75;3.65;;;;;;;19.60;66.28;100019.19;5068132;28;20111;-32
2022/07/15 00:44:29;;;;;;;4.28;3.28;;;;;;;18.94;68.87;99995.97;5050130;28;20055;-28
2022/07/15 00:46:55;;;;;;;4.90;3.35;;;;;;;18.64;70.20;100008.47;5068188;28;20036;-35
2022/07/15 00:49:21;;;;;;;5.80;3.40;;;;;;;18.75;69.54;100004.66;5049852;28;20451;-27
2022/07/15 00:51:50;;;;;;;3.95;3.05;;;;;;;18.62;70.31;100011.44;5068059;28;20047;-28
2022/07/15 00:54:16;;;;;;;11.38;3.63;;;;;;;18.40;71.07;99997.44;5068104;28;20046;-29
2022/07/15 00:56:46;;;;;;;4.97;3.10;;;;;;;19.15;68.09;100008.34;5049933;28;20404;-28
2022/07/15 00:59:12;;;;;;;6.53;3.90;;;;;;;18.93;68.11;99988.97;5049724;28;20396;-29
2022/07/15 01:01:38;;;;;;;5.70;3.60;;;;;;;19.11;67.89;100001.88;5067911;28;20039;-31
2022/07/15 01:04:05;;;;;;;4.70;3.55;;;;;;;18.74;68.79;100005.75;5068094;28;20033;-31
2022/07/15 01:06:32;;;;;;;4.90;3.57;;;;;;;18.54;69.78;99987.69;5067746;28;20036;-31
2022/07/15 01:08:57;;;;;;;80.65;49.15;;;;;;;18.60;69.81;99991.22;5049822;28;20359;-28
2022/07/15 01:11:23;;;;;;;79.63;51.22;;;;;;;18.80;69.35;100001.97;5049337;28;20036;-32
2022/07/15 01:13:49;;;;;;;15.45;9.27;;;;;;;18.78;69.59;99998.72;5075898;28;20028;-34
2022/07/15 01:16:15;;;;;;;7.15;3.70;;;;;;;18.67;69.58;99980.91;5087981;28;20032;-28
2022/07/15 01:18:40;;;;;;;4.65;3.40;;;;;;;18.65;69.90;99993.88;5087959;28;20056;-28
2022/07/15 01:21:06;;;;;;;6.40;3.22;;;;;;;18.47;70.15;99982.59;5086447;28;20029;-28
2022/07/15 01:23:31;;;;;;;7.03;3.60;;;;;;;18.32;71.35;99996.09;5088035;28;20792;-28
2022/07/15 01:25:57;;;;;;;4.82;3.42;;;;;;;18.02;72.39;99986.97;5069065;28;20028;-30
2022/07/15 01:28:23;;;;;;;4.78;3.28;;;;;;;18.00;71.93;99972.09;5087908;28;20178;-31
2022/07/15 01:30:49;;;;;;;4.60;3.55;;;;;;;18.06;72.44;99993.44;5087913;28;20032;-31
2022/07/15 01:33:14;;;;;;;4.90;3.15;;;;;;;18.34;71.09;99993.13;5086093;28;20422;-29
2022/07/15 01:35:40;;;;;;;6.85;3.17;;;;;;;18.18;71.55;99978.84;5069270;28;20028;-29
2022/07/15 01:38:05;;;;;;;5.82;3.40;;;;;;;18.39;70.47;99990.44;5087416;28;20496;-28
2022/07/15 01:40:31;;;;;;;4.25;3.15;;;;;;;18.77;68.80;99990.88;5069265;28;20115;-31
2022/07/15 01:42:56;;;;;;;4.47;3.33;;;;;;;19.04;67.22;99982.41;5087790;28;20844;-27
2022/07/15 01:45:22;;;;;;;5.95;3.67;;;;;;;19.18;65.91;99990.75;5087249;28;20032;-28
2022/07/15 01:47:49;;;;;;;8.25;3.42;;;;;;;19.33;64.75;99990.69;5087396;28;20118;-30
2022/07/15 01:50:15;;;;;;;8.77;3.67;;;;;;;19.20;64.69;99986.66;5087480;28;20112;-30
2022/07/15 01:52:41;;;;;;;6.55;3.72;;;;;;;18.58;68.17;99985.28;5068923;28;20024;-30
2022/07/15 01:55:08;;;;;;;6.22;3.42;;;;;;;18.12;69.90;99990.72;5068624;28;20084;-36
2022/07/15 01:57:34;;;;;;;3.95;3.20;;;;;;;18.37;68.72;99976.38;5069310;28;20670;-33
2022/07/15 02:00:00;;;;;;;7.18;3.60;;;;;;;18.54;67.70;99965.28;5087470;28;20107;-32
2022/07/15 02:02:25;;;;;;;5.10;3.50;;;;;;;18.84;66.78;99981.44;5087663;28;20400;-28
2022/07/15 02:04:51;;;;;;;6.28;3.53;;;;;;;18.58;67.35;99977.97;5087103;28;20027;-30
2022/07/15 02:07:17;;;;;;;6.20;3.60;;;;;;;18.54;67.15;99982.28;5087014;28;20479;-31
2022/07/15 02:09:42;;;;;;;5.30;3.40;;;;;;;18.35;67.71;99987.47;5086920;28;20039;-29
2022/07/15 02:12:08;;;;;;;5.07;3.75;;;;;;;18.57;67.15;99991.75;5087206;28;20028;-29
2022/07/15 02:14:34;;;;;;;5.90;3.70;;;;;;;17.86;69.22;99967.25;5085773;28;20060;-28
2022/07/15 02:17:00;;;;;;;6.15;3.80;;;;;;;18.26;68.39;99989.88;5087136;28;20027;-30
2022/07/15 02:19:26;;;;;;;7.63;3.40;;;;;;;18.58;67.02;99988.78;5068525;28;20089;-28
2022/07/15 02:21:51;;;;;;;6.35;4.00;;;;;;;17.95;68.93;99991.81;5068696;28;20032;-31
2022/07/15 02:24:19;;;;;;;6.60;3.90;;;;;;;17.83;69.13;99975.06;5086776;28;20024;-31
2022/07/15 02:26:45;;;;;;;9.97;4.13;;;;;;;18.22;67.70;99980.72;5070325;28;20130;-29
2022/07/15 02:29:11;;;;;;;7.00;4.20;;;;;;;17.93;69.52;99976.97;5072678;28;20036;-31
2022/07/15 02:31:36;;;;;;;8.45;3.97;;;;;;;18.15;68.35;99990.19;5091093;28;20028;-29
2022/07/15 02:34:02;;;;;;;13.52;4.97;;;;;;;18.05;68.06;99969.41;5091568;28;20028;-29
2022/07/15 02:36:28;;;;;;;10.00;4.30;;;;;;;18.18;67.52;99986.94;5090831;28;20470;-32
2022/07/15 02:38:53;;;;;;;12.95;4.40;;;;;;;18.55;66.36;99989.34;5090897;28;20035;-31
2022/07/15 02:41:19;;;;;;;9.70;4.30;;;;;;;18.20;66.56;99984.78;5090657;28;20063;-29
2022/07/15 02:43:44;;;;;;;9.80;4.22;;;;;;;18.34;66.53;99999.34;5090947;28;20032;-29
2022/07/15 02:46:10;;;;;;;8.80;4.70;;;;;;;18.19;66.43;99981.28;5090909;28;20040;-32
2022/07/15 02:48:38;;;;;;;8.32;5.03;;;;;;;18.12;67.79;100002.31;5090634;28;20035;-28
2022/07/15 02:51:04;;;;;;;9.05;5.05;;;;;;;18.15;68.30;100001.00;5072363;28;20036;-28
2022/07/15 02:53:29;;;;;;;9.90;5.10;;;;;;;17.76;70.06;99993.41;5090205;28;20028;-28
2022/07/15 02:55:58;;;;;;;7.75;5.05;;;;;;;17.69;70.23;100004.41;5090865;28;20028;-32
2022/07/15 02:58:23;;;;;;;7.65;4.72;;;;;;;17.38;71.24;100003.56;5090488;28;20031;-28
2022/07/15 03:00:49;;;;;;;9.98;4.85;;;;;;;17.76;69.93;100004.19;5090604;28;20032;-28
2022/07/15 03:03:14;;;;;;;8.25;5.40;;;;;;;17.85;69.17;100002.59;5090114;28;20144;-29
2022/07/15 03:05:40;;;;;;;6.13;4.40;;;;;;;17.96;68.90;100009.63;5090678;28;20039;-28
2022/07/15 03:08:06;;;;;;;11.98;4.20;;;;;;;17.29;70.26;99994.38;5071964;28;20403;-30
2022/07/15 03:10:31;;;;;;;15.27;4.63;;;;;;;17.15;70.31;99984.09;5090502;28;20035;-28
2022/07/15 03:12:57;;;;;;;10.43;4.88;;;;;;;17.55;70.63;99998.75;5090239;28;20043;-29
2022/07/15 03:15:22;;;;;;;9.05;4.90;;;;;;;17.93;69.30;99985.88;5089916;28;20028;-28
2022/07/15 03:17:48;;;;;;;8.40;4.90;;;;;;;18.12;69.28;100005.00;5090176;28;20028;-28
2022/07/15 03:20:13;;;;;;;10.93;5.25;;;;;;;18.32;68.45;100009.59;5088576;28;20456;-30
2022/07/15 03:22:39;;;;;;;9.48;4.90;;;;;;;17.83;70.12;100020.94;5071538;28;20031;-28
2022/07/15 03:25:05;;;;;;;11.13;4.65;;;;;;;17.28;71.58;99998.94;5090106;28;20036;-29
2022/07/15 03:27:31;;;;;;;8.63;4.20;;;;;;;16.88;72.44;100005.81;5054855;28;20035;-35
2022/07/15 03:29:56;;;;;;;6.97;4.10;;;;;;;17.14;71.87;100020.19;5090233;28;20031;-31
2022/07/15 03:32:22;;;;;;;9.15;3.95;;;;;;;17.53;70.65;100017.09;5089742;28;20028;-29
2022/07/15 03:34:51;;;;;;;10.77;4.45;;;;;;;17.94;68.59;100025.28;5090020;28;20084;-30
2022/07/15 03:37:17;;;;;;;10.30;4.60;;;;;;;17.93;68.63;100015.53;5070567;28;20459;-31
2022/07/15 03:39:43;;;;;;;10.82;4.93;;;;;;;18.24;68.03;100004.75;5071155;28;20032;-37
2022/07/15 03:42:09;;;;;;;10.05;5.35;;;;;;;18.26;67.57;100003.38;5066364;28;20048;-29
2022/07/15 03:44:34;;;;;;;10.70;5.03;;;;;;;18.28;67.75;100014.72;5068721;28;20041;-31
2022/07/15 03:47:01;;;;;;;10.63;5.18;;;;;;;18.30;67.32;100011.75;5068949;28;20054;-28
2022/07/15 03:49:27;;;;;;;12.32;5.35;;;;;;;17.97;68.10;100005.84;5069177;28;20024;-31
2022/07/15 03:51:53;;;;;;;9.15;5.30;;;;;;;17.77;68.90;100011.19;5069213;28;20028;-31
2022/07/15 03:54:19;;;;;;;11.00;5.25;;;;;;;17.41;70.20;100005.72;5067952;28;20028;-31
2022/07/15 03:56:47;;;;;;;17.70;5.40;;;;;;;17.52;69.94;100010.06;5069172;28;20036;-28
2022/07/15 03:59:20;;;;;;;12.02;5.70;;;;;;;17.31;71.19;100014.59;5068972;28;20520;-29
2022/07/15 04:01:46;;;;;;;11.90;5.70;;;;;;;17.29;71.71;100015.94;5068983;28;20133;-29
2022/07/15 04:04:11;;;;;;;9.18;5.50;;;;;;;17.34;71.58;99997.06;5069070;28;20074;-29
2022/07/15 04:06:36;;;;;;;13.73;6.20;;;;;;;17.53;72.17;100011.69;5067468;28;20044;-28
2022/07/15 04:09:02;;;;;;;13.02;6.10;;;;;;;17.52;71.66;99988.50;5068963;28;20029;-30
2022/07/15 04:11:28;;;;;;;10.85;5.40;;;;;;;17.50;72.92;100012.22;5067564;28;20065;-30
2022/07/15 04:13:53;;;;;;;7.68;5.80;;;;;;;17.53;73.15;100000.91;5069263;28;20029;-28
2022/07/15 04:16:19;;;;;;;12.55;5.25;;;;;;;17.59;73.35;99999.84;5068788;28;20027;-33
2022/07/15 04:18:44;;;;;;;8.20;4.78;;;;;;;17.81;73.73;100017.66;5067203;28;20040;-29
2022/07/15 04:21:10;;;;;;;11.80;5.85;;;;;;;17.80;73.62;100005.25;5068171;28;20024;-31
2022/07/15 04:23:36;;;;;;;10.68;5.40;;;;;;;18.07;72.90;100027.41;5068932;28;20054;-28
2022/07/15 04:26:02;;;;;;;11.70;5.00;;;;;;;18.24;72.36;100021.75;5067107;28;20051;-28
2022/07/15 04:28:27;;;;;;;8.98;5.38;;;;;;;18.06;73.37;100008.78;5068516;28;20106;-33
2022/07/15 04:30:53;;;;;;;12.38;5.65;;;;;;;18.36;72.50;100018.78;5068428;28;20021;-28
2022/07/15 04:33:19;;;;;;;10.10;5.05;;;;;;;18.60;71.73;100020.91;5068251;28;20094;-30
2022/07/15 04:35:45;;;;;;;10.93;5.55;;;;;;;18.75;70.57;99999.25;5066867;28;20090;-28
2022/07/15 04:38:11;;;;;;;8.55;6.05;;;;;;;18.79;71.04;100021.97;5067021;28;20480;-32
2022/07/15 04:40:39;;;;;;;6.15;4.88;;;;;;;19.00;70.30;100022.72;5067148;28;20025;-27
2022/07/15 04:43:06;;;;;;;9.75;5.30;;;;;;;19.38;69.19;100014.97;5083431;28;20063;-34
2022/07/15 04:45:32;;;;;;;9.18;5.20;;;;;;;19.45;65.92;99996.56;5066875;28;20037;-28
2022/07/15 04:47:57;;;;;;;10.73;5.13;;;;;;;19.80;64.91;100015.59;5066692;28;20064;-33
2022/07/15 04:53:07;;;;;;;10.80;5.53;;;;;;;19.67;64.04;100017.78;5068092;28;20036;-29
2022/07/15 04:55:33;;;;;;;7.20;5.53;;;;;;;19.67;65.02;100015.06;5068562;28;20032;-28
2022/07/15 04:57:59;;;;;;;8.00;5.20;;;;;;;19.75;65.13;100011.00;5068011;28;20032;-29
2022/07/15 05:00:24;;;;;;;7.13;5.25;;;;;;;19.98;63.93;100014.91;5066508;28;20017;-29
2022/07/15 05:02:50;;;;;;;7.85;4.30;;;;;;;20.02;62.96;100015.97;5067671;28;20021;-28
2022/07/15 05:05:16;;;;;;;7.82;4.57;;;;;;;20.05;63.41;100025.41;5067734;28;20474;-33
2022/07/15 05:07:41;;;;;;;5.00;3.90;;;;;;;20.00;62.32;100023.56;5067676;28;20090;-30
2022/07/15 05:10:09;;;;;;;6.60;4.50;;;;;;;20.18;62.65;100013.09;5067668;28;20566;-29
2022/07/15 05:12:35;;;;;;;7.47;4.27;;;;;;;20.25;63.46;100016.31;5067934;28;20028;-29
2022/07/15 05:15:00;;;;;;;6.95;4.90;;;;;;;20.36;62.05;100017.00;5083034;28;20416;-29
2022/07/15 05:17:26;;;;;;;9.10;4.68;;;;;;;20.38;61.49;100018.34;5067400;28;20021;-28
2022/07/15 05:19:52;;;;;;;6.50;4.32;;;;;;;20.45;62.03;100018.00;5067847;28;20029;-28
2022/07/15 05:22:19;;;;;;;5.68;3.95;;;;;;;20.51;62.65;100005.22;5067560;28;20127;-29
2022/07/15 05:24:45;;;;;;;8.98;4.32;;;;;;;20.73;62.69;100018.31;5065994;28;20058;-30
2022/07/15 05:27:11;;;;;;;8.18;4.00;;;;;;;20.90;60.14;100009.69;5065777;28;20066;-27
2022/07/15 05:29:36;;;;;;;8.43;4.22;;;;;;;21.20;60.00;100028.31;5065851;28;20028;-28
2022/07/15 05:32:02;;;;;;;5.20;3.80;;;;;;;21.27;59.47;100017.13;5067209;28;20055;-28
2022/07/15 05:34:27;;;;;;;6.85;3.78;;;;;;;21.24;59.23;100034.75;5067555;28;20032;-29
2022/07/15 05:36:53;;;;;;;7.47;4.65;;;;;;;21.22;59.10;100017.97;5067332;28;20028;-29
2022/07/15 05:39:19;;;;;;;6.57;4.25;;;;;;;21.67;58.63;100031.25;5067385;28;20496;-32
2022/07/15 05:41:44;;;;;;;4.40;3.15;;;;;;;21.70;56.44;100032.56;5073999;28;20054;-31
2022/07/15 05:44:09;;;;;;;8.50;4.80;;;;;;;21.65;57.08;100031.53;5052392;28;20115;-33
2022/07/15 05:46:36;;;;;;;10.13;6.07;;;;;;;21.62;57.90;100029.41;5086889;28;20138;-29
2022/07/15 05:49:01;;;;;;;5.03;3.30;;;;;;;21.80;56.96;100032.41;5087478;28;20024;-28
2022/07/15 05:51:27;;;;;;;10.77;7.15;;;;;;;21.94;57.27;100025.13;5087132;28;20126;-31
2022/07/15 05:53:52;;;;;;;4.90;3.30;;;;;;;22.16;55.60;100029.94;5087220;28;20032;-29
2022/07/15 05:56:17;;;;;;;17.30;4.15;;;;;;;22.33;54.92;100026.72;5087162;28;20024;-28
2022/07/15 05:58:43;;;;;;;9.00;3.28;;;;;;;22.53;53.76;100024.72;5087091;28;20051;-29
2022/07/15 06:01:09;;;;;;;8.30;3.45;;;;;;;22.59;54.99;100015.38;5085880;28;20028;-28
2022/07/15 06:03:35;;;;;;;4.45;2.78;;;;;;;22.94;52.60;100023.94;5087228;28;20055;-32
2022/07/15 06:06:03;;;;;;;5.10;2.97;;;;;;;23.14;51.69;100009.97;5085985;28;20491;-33
2022/07/15 06:08:28;;;;;;;6.60;2.70;;;;;;;23.34;50.30;100011.44;5068879;28;20032;-28
2022/07/15 06:10:54;;;;;;;6.55;3.10;;;;;;;23.52;48.69;100017.03;5068957;28;20024;-30
2022/07/15 06:13:20;;;;;;;3.95;2.38;;;;;;;23.67;48.72;100022.94;5086911;28;20040;-31
2022/07/15 06:15:46;;;;;;;5.65;2.78;;;;;;;23.57;46.95;100023.16;5086652;28;20213;-30
2022/07/15 06:18:11;;;;;;;4.65;2.80;;;;;;;23.66;47.99;100017.81;5087258;28;20119;-28
2022/07/15 06:20:37;;;;;;;6.60;2.40;;;;;;;23.83;46.58;100014.47;5086795;28;20112;-31
2022/07/15 06:23:02;;;;;;;3.97;2.50;;;;;;;23.84;48.46;100016.88;5087393;28;20493;-28
2022/07/15 06:25:28;;;;;;;4.47;2.70;;;;;;;24.23;47.55;100011.81;5086861;28;20032;-29
2022/07/15 06:27:53;;;;;;;9.95;3.50;;;;;;;24.21;46.21;100001.25;5086888;28;20024;-29
2022/07/15 06:30:19;;;;;;;7.00;2.83;;;;;;;24.19;46.60;100011.66;5086668;28;20032;-28
2022/07/15 06:32:44;;;;;;;6.50;3.38;;;;;;;24.40;46.81;100020.13;5086775;28;20797;-28
2022/07/15 06:35:11;;;;;;;7.95;3.40;;;;;;;24.38;46.00;100014.16;5085557;28;20097;-28
2022/07/15 06:37:37;;;;;;;4.60;3.00;;;;;;;24.42;45.30;100017.09;5086727;28;20024;-29
2022/07/15 06:40:02;;;;;;;4.15;2.28;;;;;;;24.50;44.54;100013.63;5086592;28;20082;-29
2022/07/15 06:42:28;;;;;;;10.40;3.15;;;;;;;24.50;45.32;100007.34;5084936;28;20572;-29
2022/07/15 06:44:54;;;;;;;4.40;2.70;;;;;;;24.37;45.72;100004.38;5086544;28;20480;-29
2022/07/15 06:47:19;;;;;;;5.45;2.70;;;;;;;24.63;45.13;100017.38;5068284;28;20031;-28
2022/07/15 06:49:45;;;;;;;6.10;2.47;;;;;;;24.70;45.62;100009.53;5086618;28;20039;-31
2022/07/15 06:52:10;;;;;;;5.15;2.58;;;;;;;24.85;45.34;100013.75;5068349;28;20146;-37
2022/07/15 06:54:35;;;;;;;8.48;2.47;;;;;;;24.94;44.99;100000.16;5068370;28;20502;-31
2022/07/15 06:57:01;;;;;;;4.50;2.63;;;;;;;25.19;44.00;99983.03;5086559;28;20031;-31
2022/07/15 06:59:27;;;;;;;6.82;2.85;;;;;;;25.36;44.42;99995.13;5086145;28;20020;-28
2022/07/15 07:01:53;;;;;;;5.70;2.60;;;;;;;25.45;43.71;99998.66;5068718;28;20024;-29
2022/07/15 07:04:19;;;;;;;5.32;2.78;;;;;;;25.54;43.75;100001.38;5068061;28;20038;-31
2022/07/15 07:06:45;;;;;;;3.78;2.30;;;;;;;25.58;43.48;99997.72;5086489;28;20535;-32
2022/07/15 07:09:11;;;;;;;4.40;2.45;;;;;;;25.77;42.01;99999.31;5085967;28;20028;-28
2022/07/15 07:11:39;;;;;;;4.25;2.22;;;;;;;25.88;42.81;99995.09;5068161;28;20040;-29
2022/07/15 07:14:05;;;;;;;3.20;2.40;;;;;;;26.06;41.82;99996.72;5089881;28;20081;-29
2022/07/15 07:16:31;;;;;;;4.82;2.50;;;;;;;26.26;40.47;100000.69;5071755;28;20135;-30
2022/07/15 07:18:56;;;;;;;4.57;2.22;;;;;;;26.29;41.27;99992.97;5090123;28;20031;-32
2022/07/15 07:21:21;;;;;;;4.70;2.15;;;;;;;26.36;41.83;99993.28;5090039;28;20032;-33
2022/07/15 07:23:47;;;;;;;5.65;2.60;;;;;;;26.45;42.37;99981.16;5090233;28;20055;-30
2022/07/15 07:26:14;;;;;;;4.13;2.38;;;;;;;26.59;40.46;99997.41;5089816;28;20032;-31
2022/07/15 07:28:40;;;;;;;6.40;2.50;;;;;;;26.72;39.42;99979.16;5071222;28;20093;-29
2022/07/15 07:31:07;;;;;;;4.30;2.15;;;;;;;26.76;39.37;99977.34;5089712;28;20039;-30
2022/07/15 07:33:33;;;;;;;5.63;2.22;;;;;;;26.82;40.38;99984.25;5071756;28;20038;-28
2022/07/15 07:35:58;;;;;;;6.15;2.60;;;;;;;26.88;38.80;99976.66;5071581;28;20032;-29
2022/07/15 07:38:24;;;;;;;5.05;2.60;;;;;;;27.12;39.65;99986.97;5089711;28;20028;-29
2022/07/15 07:40:50;;;;;;;4.43;2.17;;;;;;;27.54;39.26;99991.69;5089846;28;20036;-31
2022/07/15 07:43:17;;;;;;;2.47;2.28;;;;;;;27.70;38.61;99991.88;5067372;28;20052;-28
2022/07/15 07:45:43;;;;;;;4.93;2.20;;;;;;;27.79;38.65;99992.63;5084929;28;20451;-29
2022/07/15 07:48:09;;;;;;;4.03;2.15;;;;;;;27.69;39.01;99984.81;5069324;28;20036;-29
2022/07/15 07:50:34;;;;;;;4.18;2.63;;;;;;;27.80;38.62;99988.72;5069466;28;20047;-30
2022/07/15 07:53:00;;;;;;;6.07;2.20;;;;;;;27.82;38.17;99984.50;5069235;28;20025;-30
2022/07/15 07:55:26;;;;;;;7.35;2.60;;;;;;;28.13;38.85;99987.94;5067393;28;20028;-30
2022/07/15 07:57:54;;;;;;;5.30;2.30;;;;;;;28.28;37.31;99987.31;5068698;28;20029;-29
2022/07/15 08:00:21;;;;;;;7.47;2.53;;;;;;;28.41;38.00;99972.47;5067662;28;20054;-32
2022/07/15 08:02:47;;;;;;;4.72;2.50;;;;;;;28.52;36.97;99967.34;5067648;28;20044;-33
2022/07/15 08:05:15;;;;;;;4.88;2.05;;;;;;;28.48;36.38;99973.84;5067264;28;20040;-32
2022/07/15 08:07:41;;;;;;;2.08;1.88;;;;;;;28.49;36.20;99978.19;5068946;28;20024;-29
2022/07/15 08:10:08;;;;;;;4.82;2.15;;;;;;;28.83;37.00;99986.00;5067112;28;20029;-29
2022/07/15 08:12:36;;;;;;;2.55;1.80;;;;;;;28.89;34.35;99972.03;5069267;28;20036;-29
2022/07/15 08:15:02;;;;;;;2.75;2.17;;;;;;;29.25;35.63;99963.75;5068826;28;20401;-30
2022/07/15 08:17:27;;;;;;;3.33;2.25;;;;;;;29.42;36.19;99967.38;5067043;28;20055;-33
2022/07/15 08:19:53;;;;;;;4.45;2.20;;;;;;;29.73;35.89;99976.91;5068578;28;20524;-31
2022/07/15 08:22:20;;;;;;;3.85;2.28;;;;;;;29.73;35.18;99957.66;5068528;28;20021;-29
2022/07/15 08:24:45;;;;;;;7.95;6.18;;;;;;;29.93;34.26;99970.38;5067301;28;20039;-35
2022/07/15 08:27:11;;;;;;;13.30;9.45;;;;;;;30.37;33.56;99975.88;5068386;28;20032;-32
2022/07/15 08:29:38;;;;;;;5.32;2.58;;;;;;;30.49;32.41;99979.72;5067211;28;20499;-31
2022/07/15 08:32:04;;;;;;;4.55;2.00;;;;;;;30.65;32.03;99977.75;5066979;28;20058;-31
2022/07/15 08:34:30;;;;;;;3.58;1.58;;;;;;;30.63;31.49;99969.06;5083690;28;20029;-33
2022/07/15 08:36:55;;;;;;;4.22;1.80;;;;;;;30.59;31.47;99970.91;5067831;28;20025;-30
2022/07/15 08:39:21;;;;;;;2.63;1.42;;;;;;;30.66;31.72;99968.31;5067910;28;20049;-33
2022/07/15 08:41:46;;;;;;;5.68;1.75;;;;;;;30.90;31.49;99966.56;5074996;28;20036;-29
2022/07/15 08:44:12;;;;;;;3.55;2.13;;;;;;;30.61;32.52;99965.84;5088392;28;20020;-29
2022/07/15 08:46:41;;;;;;;4.00;1.90;;;;;;;30.46;32.51;99961.94;5088651;28;20031;-34
2022/07/15 08:49:16;;;;;;;4.05;1.83;;;;;;;30.41;33.39;99965.78;5069781;28;20024;-32
2022/07/15 08:51:44;;;;;;;4.32;1.70;;;;;;;30.41;31.67;99965.78;5088041;28;20023;-36
2022/07/15 08:54:10;;;;;;;4.00;1.65;;;;;;;30.42;31.54;99947.31;5088052;28;20190;-29
2022/07/15 08:56:37;;;;;;;2.95;1.92;;;;;;;30.79;31.04;99972.59;5087994;28;20031;-29
2022/07/15 08:59:04;;;;;;;3.03;1.70;;;;;;;31.04;31.04;99939.34;5088097;28;20032;-29
2022/07/15 09:01:32;;;;;;;3.30;1.90;;;;;;;31.60;31.11;99944.44;5069824;28;20118;-30
2022/07/15 09:03:58;;;;;;;5.20;1.88;;;;;;;31.58;31.61;99951.47;5069607;28;20022;-29
2022/07/15 09:06:37;;;;;;;7.23;2.43;;;;;;;31.88;29.62;99959.13;5069487;28;20047;-32
2022/07/15 09:09:18;;;;;;;5.85;1.70;;;;;;;31.87;30.27;99946.50;5069740;28;20345;-29
2022/07/15 09:11:52;;;;;;;3.13;1.85;;;;;;;31.82;30.34;99942.09;5069668;28;20055;-29
2022/07/15 09:14:19;;;;;;;4.38;1.80;;;;;;;31.73;30.36;99947.03;5087850;28;20020;-29
2022/07/15 09:16:45;;;;;;;2.75;1.60;;;;;;;31.88;28.80;99942.59;5087446;28;20032;-31
2022/07/15 09:19:10;;;;;;;3.55;1.60;;;;;;;31.85;29.85;99933.06;5087546;28;20081;-34
2022/07/15 09:21:36;;;;;;;2.05;1.60;;;;;;;31.99;27.77;99949.09;5087863;28;20024;-29
2022/07/15 09:24:18;;;;;;;4.18;1.80;;;;;;;31.88;27.42;99926.84;5087713;28;20039;-29
2022/07/15 09:26:44;;;;;;;2.60;1.50;;;;;;;32.06;27.77;99938.22;5069200;28;20027;-35
2022/07/15 09:36:01;;;;;;;2.30;1.42;;;;;;;32.50;27.26;99932.22;5087772;28;20067;-31
2022/07/15 09:37:58;;;;;;;3.08;1.42;;;;;;;32.79;27.20;99925.19;5087320;28;20510;-32
2022/07/15 09:40:24;;;;;;;3.33;1.48;;;;;;;32.52;26.71;99920.81;5069299;28;20063;-31
2022/07/15 09:43:06;;;;;;;2.90;1.30;;;;;;;32.46;25.52;99925.06;5087216;28;20044;-29
2022/07/15 09:45:35;;;;;;;3.03;1.30;;;;;;;32.51;25.53;99935.78;5068947;28;20085;-33
2022/07/15 09:48:14;;;;;;;7.80;1.85;;;;;;;32.93;27.34;99934.84;5068786;28;20024;-29
2022/07/15 09:50:39;;;;;;;3.22;1.48;;;;;;;32.98;24.88;99916.00;5087399;28;20324;-31
2022/07/15 09:53:11;;;;;;;3.70;1.50;;;;;;;32.85;24.13;99916.59;5087275;28;20804;-38
2022/07/15 09:55:39;;;;;;;3.72;1.33;;;;;;;32.79;25.16;99916.91;5068948;28;20119;-30
2022/07/15 09:58:05;;;;;;;9.50;6.45;;;;;;;32.44;24.72;99908.88;5087300;28;20058;-28
2022/07/15 10:00:31;;;;;;;43.60;25.60;;;;;;;33.00;24.24;99896.28;5068770;28;20035;-31
2022/07/15 10:02:57;;;;;;;4.15;1.83;;;;;;;33.34;24.17;99899.88;5068809;28;20032;-31
2022/07/15 10:05:24;;;;;;;6.50;2.20;;;;;;;33.88;23.32;99894.13;5068537;28;20059;-32
2022/07/15 10:07:52;;;;;;;8.60;5.15;;;;;;;34.22;23.37;99900.38;5068709;28;20402;-30
2022/07/15 10:10:19;;;;;;;7.35;3.60;;;;;;;34.32;23.16;99890.56;5068781;28;20093;-29
2022/07/15 10:12:57;;;;;;;37.65;13.70;;;;;;;34.40;22.67;99901.28;5068718;28;20028;-31
2022/07/15 10:15:41;;;;;;;50.83;24.02;;;;;;;34.38;23.33;99895.34;5086567;28;20047;-29
2022/07/15 10:18:38;;;;;;;21.40;9.68;;;;;;;34.61;23.95;99889.56;5087052;28;20047;-30
2022/07/15 10:21:48;;;;;;;4.05;1.50;;;;;;;34.33;23.70;99889.41;5068603;28;20754;-29
2022/07/15 10:24:26;;;;;;;3.85;1.80;;;;;;;34.02;25.25;99885.94;5081890;28;20146;-29
2022/07/15 10:27:12;;;;;;;3.88;1.60;;;;;;;34.21;23.81;99882.19;5086896;28;20040;-30
2022/07/15 10:29:38;;;;;;;3.08;1.45;;;;;;;33.88;23.72;99870.03;5068607;28;20035;-29
2022/07/15 10:32:04;;;;;;;1.80;1.35;;;;;;;34.13;25.13;99861.13;5068759;28;20043;-32
2022/07/15 10:34:37;;;;;;;2.58;1.25;;;;;;;34.18;24.30;99867.16;5086649;28;20028;-30
2022/07/15 10:37:11;;;;;;;3.42;1.30;;;;;;;34.32;22.32;99858.13;5086829;28;20024;-29
2022/07/15 10:39:50;;;;;;;2.92;1.30;;;;;;;34.03;23.04;99857.91;5068664;28;20430;-30
2022/07/15 10:42:17;;;;;;;5.47;1.23;;;;;;;34.35;23.98;99843.53;5068221;28;20154;-29
2022/07/15 10:44:57;;;;;;;3.50;1.33;;;;;;;34.39;22.69;99863.72;5086435;28;20396;-29
2022/07/15 10:47:23;;;;;;;5.30;1.45;;;;;;;34.34;24.28;99850.22;5087273;28;20111;-30
2022/07/15 10:49:50;;;;;;;2.75;1.38;;;;;;;34.06;22.86;99844.47;5090620;28;20473;-29
2022/07/15 10:52:18;;;;;;;5.57;1.83;;;;;;;34.06;24.32;99852.78;5090564;28;20819;-29
2022/07/15 10:54:49;;;;;;;5.00;1.30;;;;;;;34.29;24.56;99852.59;5071931;28;20032;-33
2022/07/15 10:57:19;;;;;;;2.83;1.40;;;;;;;34.09;23.26;99827.91;5072251;28;20085;-30
2022/07/15 10:59:54;;;;;;;3.20;1.20;;;;;;;34.48;23.45;99848.75;5091427;28;20028;-30
2022/07/15 11:02:22;;;;;;;1.67;1.17;;;;;;;34.53;23.71;99838.09;5073669;28;20125;-30
2022/07/15 11:04:50;;;;;;;3.17;1.30;;;;;;;34.37;22.27;99832.88;5072958;28;20028;-30
2022/07/15 11:07:16;;;;;;;2.47;1.42;;;;;;;34.85;22.74;99834.72;5089423;28;20024;-31
2022/07/15 11:09:48;;;;;;;5.20;1.40;;;;;;;35.33;22.87;99837.28;5073098;28;20036;-32
2022/07/15 11:12:21;;;;;;;7.18;1.50;;;;;;;35.10;21.30;99829.25;5091429;28;20062;-29
2022/07/15 11:14:55;;;;;;;2.30;1.42;;;;;;;35.32;21.19;99838.44;5073057;28;20781;-33
2022/07/15 11:17:37;;;;;;;2.05;1.38;;;;;;;34.93;22.13;99836.31;5090984;28;20111;-29
2022/07/15 11:20:13;;;;;;;2.75;1.40;;;;;;;35.18;21.00;99830.09;5091045;28;20107;-34
2022/07/15 11:22:45;;;;;;;2.17;1.20;;;;;;;35.63;23.28;99824.22;5072835;28;20450;-29
2022/07/15 11:25:33;;;;;;;2.85;1.60;;;;;;;35.82;22.98;99807.25;5072419;28;20040;-30
2022/07/15 11:28:01;;;;;;;5.35;1.50;;;;;;;35.37;23.96;99821.44;5072582;28;20024;-30
2022/07/15 11:30:37;;;;;;;2.20;1.20;;;;;;;35.21;22.78;99807.16;5090904;28;20762;-33
2022/07/15 11:33:05;;;;;;;7.40;1.67;;;;;;;35.26;21.88;99805.97;5072646;28;20059;-31
2022/07/15 11:35:43;;;;;;;1.95;1.50;;;;;;;35.76;21.94;99797.72;5090505;28;20078;-30
2022/07/15 11:38:08;;;;;;;3.03;1.40;;;;;;;36.00;19.92;99796.91;5072441;28;20051;-30